Weather observations for the past three days for
Logan County Airport
Metric (Imperial)
Date Time (cdt) Wind (kph) Vis. (km) Weather Sky Cond. Temperature (ºC) Relative Humidity Wind Chill (°C) Heat Index (°C) Pressure Precipitation (cm)
Air Dwpt 6 hour altimeter (cm) sea level (mb) 1 hr 3 hr 6 hr
Max. Min.
10 11:55 N 11 16.09 Fair CLR 18.5 -0.4 28% 76.5 0.0
10 11:35 W 6 16.09 Fair CLR 18.3 0 29% 76.5 0.0
10 11:15 N 11 16.09 Fair CLR 18.1 0.6 31% 76.5 0.0
10 10:35 N 7 16.09 Fair CLR 17.6 0.2 31% 76.48 0.0
10 10:15 N 6 16.09 Fair CLR 17.3 3 39% 76.45 0.0
10 09:55 N 11 16.09 Fair CLR 17 4.4 43% 76.45 0.0
10 09:35 N 7 16.09 Fair CLR 16.6 5.8 49% 76.43 0.0
10 09:15 N 6 16.09 Fair CLR 16.1 5.6 50% 76.43 0.0
10 08:55 Calm 16.09 Fair CLR 15 4.9 51% 76.45 0.0
10 08:35 N 7 16.09 Fair CLR 14.4 5.1 54% 76.43 0.0
10 08:15 N 7 16.09 Fair CLR 13.5 4.7 56% 76.4 0.0
10 07:55 N 11 16.09 Fair CLR 12.8 4.1 56% 76.38 0.0
10 07:35 N 17 16.09 Fair CLR 12.3 3.6 56% 76.35 0.0
10 07:15 N 13 16.09 Fair CLR 12 3.2 55% 76.33 0.0
10 06:55 N 9 16.09 Fair CLR 11.3 3.2 17.3 10.7 58% 76.33 0.0
10 06:35 N 7 16.09 Fair CLR 11 3.2 59% 76.28 0.0
10 06:15 N 7 16.09 Fair CLR 10.8 3.1 59% 76.25 0.0
10 05:55 N 9 16.09 Fair CLR 11.1 3 58% 76.23 0.0
10 05:35 NW 7 16.09 Fair CLR 11.5 3.4 58% 76.23 0.0
10 05:15 N 9 16.09 Fair CLR 12.1 3.6 56% 76.17 0.0
10 04:55 N 11 16.09 Fair CLR 12.3 4.2 58% 76.12 0.0
10 04:35 N 6 16.09 Fair CLR 12.6 4.1 56% 76.1 0.0
10 04:15 N 7 16.09 Fair CLR 13.2 4.4 55% 76.07 0.0
10 03:55 N 7 16.09 Fair CLR 13.6 4.9 56% 76.05 0.0
10 03:35 N 6 16.09 Partly Cloudy SCT100 14 5.2 56% 76.05 0.0
10 03:15 N 7 16.09 Mostly Cloudy BKN100 14.7 5.6 55% 76.05 0.0
10 02:55 Calm 16.09 Mostly Cloudy BKN100 BKN120 15.1 6.1 55% 76.02 0.0
10 02:35 Calm 16.09 Mostly Cloudy SCT100 BKN120 15.7 6.5 55% 76.05 0.0
10 02:15 Calm 16.09 Overcast BKN100 OVC120 16.4 6.4 52% 76.05 0.0
10 01:55 Calm 16.09 Mostly Cloudy BKN100 BKN120 16.6 6.3 51% 76.05 0.0
10 01:35 Calm 16.09 Overcast OVC100 17 6 49% 76.05 0.0
10 01:15 N 6 16.09 Overcast OVC090 17.2 6.3 49% 76 0.0
10 00:55 Calm 16.09 Overcast OVC090 17.3 6.7 24.7 17.2 50% 76 0.0
10 00:35 N 6 16.09 Overcast BKN100 OVC110 17.4 7.4 52% 75.95 0.0
10 00:15 N 7 16.09 Overcast OVC100 17.7 7.5 51% 75.92 0.0
09 23:55 N 7 16.09 Overcast OVC090 18 7.5 50% 75.92 0.0
09 23:35 Calm 16.09 Overcast OVC100 18.3 7.3 49% 75.92 0.0
09 23:15 Calm 16.09 Overcast OVC100 18.6 7.2 48% 75.92 0.0
09 22:55 Calm 16.09 Overcast OVC110 18.6 7.5 49% 75.87 0.0
09 22:35 Calm 16.09 Overcast OVC110 18.9 7.3 47% 75.87 0.0
09 22:15 NW 6 16.09 Overcast OVC110 19 6.7 45% 75.84 0.0
09 21:55 Calm 16.09 Overcast OVC110 19.5 6.3 42% 75.79 0.0
09 21:35 N 6 16.09 Mostly Cloudy BKN110 20 6.1 40% 75.77 0.0
09 21:15 N 9 16.09 Partly Cloudy SCT110 20.1 6.3 41% 75.74 0.0
09 20:55 N 7 16.09 Mostly Cloudy BKN120 20.4 6.8 41% 75.72 0.0
09 20:35 N 11 16.09 Mostly Cloudy BKN110 20.9 6.8 40% 75.69 0.0
09 20:15 N 7 16.09 Partly Cloudy SCT110 21 6.1 38% 75.67 0.0
09 19:55 Calm 16.09 Mostly Cloudy BKN110 21.6 6.1 37% 75.64 0.0
09 19:35 N 7 16.09 Partly Cloudy SCT110 22.9 5.6 33% 75.62 0.0
09 19:15 Calm 16.09 Partly Cloudy SCT110 24.2 7.7 35% 25 75.57 0.0
09 18:55 Calm 16.09 Fair CLR 24.7 7.2 26.1 22 33% 25 75.54 0.0
09 18:35 W 9 16.09 Fair CLR 25 7.2 32% 25 75.54 0.0
09 18:15 W 6 16.09 Fair CLR 25 6.9 31% 25 75.54 0.0
09 17:55 W 6 16.09 Fair CLR 25.1 7.6 33% 26 75.54 0.0
09 17:35 W 7 16.09 Fair CLR 25.3 6.5 30% 26 75.54 0.0
09 17:15 W 6 16.09 Fair CLR 25.3 6.5 30% 26 75.54 0.0
09 16:55 W 13 16.09 Fair CLR 25.7 6.9 30% 26 75.51 0.0
09 16:35 W 9 16.09 Partly Cloudy SCT080 26.1 9 34% 26 75.51 0.0
09 16:15 W 9 16.09 Partly Cloudy SCT080 25.7 9.7 36% 26 75.54 0.0
09 15:55 W 17 16.09 Fair CLR 25.7 9.2 35% 26 75.54 0.0
09 15:35 W 11 16.09 Partly Cloudy SCT080 25.1 9.3 37% 26 75.54 0.0
09 15:15 W 15 16.09 Fair CLR 25.1 9.8 38% 26 75.54 0.0
09 14:55 W 9 16.09 Fair CLR 24.9 10.4 40% 26 75.57 0.0
09 14:35 W 11 16.09 Fair CLR 24.5 11 43% 26 75.57 0.0
09 14:15 W 11 16.09 Fair CLR 24.1 10.9 44% 25 75.59 0.0
09 13:55 NW 13 16.09 Fair CLR 23.9 11.3 45% 25 75.57 0.0
09 13:35 SW 13 16.09 Fair CLR 23.7 12.2 49% 75.57 0.0
09 13:15 W 7 16.09 Fair CLR 22.7 12.4 52% 75.57 0.0
09 12:55 SW 11 16.09 Fair CLR 22 13.2 22 11.7 58% 75.57 0.0
09 12:35 SW 15 16.09 Fair CLR 21.4 13.2 60% 75.59 0.0
09 12:15 SW 7 16.09 Fair CLR 20.8 13.4 63% 75.59 0.0
09 11:55 W 9 16.09 Fair CLR 20.2 13.5 66% 75.57 0.0
09 11:35 SW 9 16.09 Partly Cloudy SCT023 19.6 13.1 66% 75.59 0.0
09 11:15 W 9 16.09 Partly Cloudy SCT023 19.3 13.8 71% 75.57 0.0
09 10:55 SW 11 16.09 Partly Cloudy SCT021 19 13.4 70% 75.57 0.0
09 10:35 W 9 16.09 Partly Cloudy SCT019 18.5 13 71% 75.57 0.0
09 10:15 W 7 16.09 Partly Cloudy SCT017 18.3 13.7 75% 75.57 0.0
09 09:55 SW 9 16.09 Fair CLR 17.6 13.9 79% 75.57 0.0
09 09:35 SW 13 16.09 Partly Cloudy SCT009 SCT014 16.8 14.9 89% 75.54 0.0
09 09:15 SW 9 16.09 Mostly Cloudy BKN009 15.6 15.4 99% 75.54 0.0
09 08:55 SW 9 16.09 Overcast OVC009 14.7 14.7 100% 75.57 0.0
09 08:35 SW 7 16.09 Mostly Cloudy BKN007 14.3 14.3 100% 75.59 0.0
09 08:15 SW 6 16.09 Overcast OVC004 13.4 13.4 100% 75.57 0.0
09 07:55 S 9 11.27 Overcast OVC002 12.6 12.6 100% 75.57 0.0
09 07:35 SW 7 6.44 Fog/Mist OVC002 12.2 12.2 100% 75.57 0.0
09 07:15 SW 9 4.83 Fog/Mist OVC002 12 12 100% 75.57 0.0
09 06:55 SW 11 1.21 Fog/Mist OVC002 11.7 11.7 12 10.6 100% 75.54 0.0
09 06:35 SW 9 0.80 Fog OVC002 11.5 11.5 100% 75.54 0.0
09 06:15 SW 7 0.40 Fog OVC002 11.2 11.2 100% 75.54 0.0
09 05:55 S 6 0.80 Fog OVC002 11.1 11.1 100% 75.54 0.0
09 05:35 SW 7 1.61 Fog/Mist OVC002 11.3 11.3 100% 75.54 0.0
09 05:15 Calm 1.21 Fog/Mist OVC002 11.2 11.2 100% 75.54 0.0
09 04:55 S 6 0.80 Fog OVC002 11.3 11.3 100% 75.51 0.0
09 04:35 SW 6 8.05 Fog/Mist SCT002 11 11 100% 75.54 0.0
09 04:15 S 6 8.05 Fog/Mist SCT002 11 11 100% 75.54 0.0
09 03:55 Calm 6.44 Fog/Mist CLR 10.6 10.6 100% 75.54 0.0
09 03:35 Calm 4.83 Fog/Mist CLR 10.8 10.8 100% 75.54 0.0
09 03:15 Calm 4.02 Fog/Mist SCT002 SCT007 10.9 10.9 100% 75.54 0.0
09 02:55 Calm 4.02 Fog/Mist OVC002 11.1 11.1 100% 75.54 0.0
09 02:35 Calm 4.83 Fog/Mist SCT002 OVC005 11.3 11.3 100% 75.54 0.0
09 02:15 Calm 6.44 Fog/Mist OVC005 11.6 11.6 100% 75.54 0.0
09 01:55 Calm 6.44 Fog/Mist BKN005 11.3 11.3 100% 75.54 0.0
09 01:35 S 7 4.83 Fog/Mist CLR 10.7 10.7 100% 75.57 0.0
09 01:15 Calm 16.09 Fair CLR 12 12 100% 75.57 0.0
09 00:55 Calm 16.09 Fair CLR 12 12 15.1 12 100% 75.57 0.0
09 00:35 Calm 16.09 Fair CLR 12.2 12.2 100% 75.57 0.0
09 00:15 Calm 16.09 Fair CLR 12.5 12.5 100% 75.59 0.0
08 23:55 Calm 16.09 Fair CLR 12.5 12.5 100% 75.59 0.0
08 23:35 SW 6 16.09 Fair CLR 12.6 12.6 100% 75.59 0.0
08 23:15 Calm 16.09 Fair CLR 12.6 12.6 100% 75.59 0.0
08 22:55 S 6 16.09 Fair CLR 12.8 12.8 100% 75.62 0.0
08 22:35 Calm 16.09 Fair CLR 12.8 12.8 100% 75.62 0.0
08 22:15 Calm 16.09 Fair CLR 13 13 100% 75.62 0.0
08 21:55 Calm 16.09 Fair CLR 13.2 13.2 100% 75.64 0.0
08 21:35 Calm 16.09 Fair CLR 13.4 13.4 100% 75.67 0.0
08 21:15 Calm 16.09 Fair CLR 13.6 12.6 94% 75.64 0.0
08 20:55 Calm 16.09 Fair CLR 13.8 12.5 92% 75.64 0.0
08 20:35 SW 6 16.09 Fair CLR 14 12.3 90% 75.62 0.0
08 19:55 SW 7 16.09 Fair CLR 14.5 12.1 86% 75.62 0.0
08 19:35 SW 6 16.09 Partly Cloudy SCT080 14.7 11.9 83% 75.62 0.0
08 19:15 SW 6 16.09 Partly Cloudy SCT080 15 11.7 81% 75.59 0.0
08 18:55 SW 6 16.09 Partly Cloudy SCT075 15.1 12 17.2 14.8 82% 75.62 0.0 0.08
08 18:35 SW 9 16.09 Partly Cloudy SCT075 15.5 12 80% 75.62 0.0
08 18:15 SW 9 16.09 Fair CLR 15.5 12.1 80% 75.64 0.0
08 17:55 SW 13 16.09 Fair CLR 15.6 11.9 79% 75.64 0.0
08 17:35 SW 11 16.09 Partly Cloudy SCT110 15.4 11.8 79% 75.64 0.0
08 17:15 SW 11 16.09 Mostly Cloudy BKN110 15.5 12.2 81% 75.64 0.0
08 16:55 SW 17 16.09 Mostly Cloudy BKN110 15.7 11.9 78% 75.67 0.0
08 16:35 SW 9 16.09 Fair CLR 16.1 11.3 73% 75.67 0.0
08 16:15 SW 13 16.09 Partly Cloudy SCT090 SCT120 16.9 11.3 70% 75.67 0.0
08 15:35 S 7 16.09 Overcast BKN090 OVC120 17.2 10.4 65% 75.64 0.0
08 14:55 S 9 16.09 Mostly Cloudy BKN110 17 10.8 67% 75.67 0.0
08 14:35 S 11 16.09 Overcast OVC100 15.9 10.9 72% 75.69 0.0
08 14:15 Calm 16.09 Overcast SCT080 OVC090 15.2 11.8 80% 75.77 0.0
08 13:55 Calm 16.09 Light Rain SCT080 OVC100 15.1 12.2 83% 75.77 0.0 0.08
08 13:35 Calm 16.09 Light Drizzle SCT050 SCT065 OVC100 14.9 11.9 82% 75.79 0.0 0.05
08 13:15 Calm 16.09 Light Rain SCT060 BKN065 OVC075 15 11.7 81% 75.77 0.0 0.05
08 12:55 NW 6 16.09 Rain OVC065 16.1 9.9 17.9 10 67% 75.82 0.0
08 12:35 Calm 16.09 Overcast SCT065 OVC075 16.9 8.8 59% 75.82 0.0
08 12:15 SW 6 16.09 Overcast SCT065 OVC090 17.2 8.9 58% 75.84 0.0
08 11:55 W 9 16.09 Overcast SCT065 SCT075 OVC090 17.2 8.8 58% 75.82 0.0
08 11:35 SW 9 16.09 Overcast OVC100 17.4 8.6 56% 75.84 0.0
08 11:15 W 7 16.09 Mostly Cloudy BKN100 17.5 9 58% 75.84 0.0
08 10:55 W 6 16.09 Partly Cloudy SCT100 17.7 8.8 56% 75.84 0.0
08 10:35 W 11 16.09 Overcast OVC100 17.5 8.6 56% 75.84 0.0
08 10:15 W 11 16.09 Mostly Cloudy BKN100 17.5 8.5 56% 75.87 0.0
08 09:55 W 9 16.09 Partly Cloudy SCT110 17.1 8.2 56% 75.84 0.0
08 09:35 SW 9 16.09 Fair CLR 17.2 8.8 58% 75.84 0.0
08 08:55 SW 9 16.09 Partly Cloudy SCT110 16.3 8.6 61% 75.9 0.0
08 08:35 SW 9 16.09 Fair CLR 15.4 8.5 64% 75.87 0.0
08 08:15 SW 11 16.09 Fair CLR 14.1 8 67% 75.87 0.0
08 07:55 Calm 16.09 Fair CLR 13.4 7.9 70% 75.9 0.0
08 07:35 Calm 16.09 Fair CLR 12.6 8.2 75% 75.87 0.0
08 07:15 S 9 16.09 Fair CLR 11.4 7.8 79% 75.87 0.0
08 06:55 Calm 16.09 Partly Cloudy SCT090 10 7.9 12.3 8 87% 75.87 0.0
08 06:35 Calm 16.09 Mostly Cloudy BKN090 9.7 8.3 91% 75.87 0.0
08 05:55 Calm 16.09 Mostly Cloudy BKN090 8.4 8.4 100% 75.84 0.0
08 05:35 Calm 16.09 Partly Cloudy SCT090 8.5 8.5 100% 75.84 0.0
08 05:15 NE 7 16.09 Mostly Cloudy BKN080 BKN110 8.8 7.1 89% 8 75.87 0.0
08 04:55 Calm 16.09 Mostly Cloudy BKN080 9.7 7 83% 75.84 0.0
08 04:35 Calm 16.09 Overcast OVC080 9.7 7.2 85% 75.84 0.0
08 04:15 Calm 16.09 Mostly Cloudy SCT080 BKN110 10.2 6.8 80% 75.84 0.0
08 03:55 Calm 16.09 Overcast OVC110 10.2 7 81% 75.84 0.0
08 03:35 S 9 16.09 Partly Cloudy SCT120 10.2 6.7 79% 75.84 0.0
08 03:15 S 9 16.09 Partly Cloudy SCT120 10.7 6.5 75% 75.84 0.0
08 02:55 S 9 16.09 Partly Cloudy SCT120 11.1 6.4 73% 75.87 0.0
08 02:35 Calm 16.09 Fair CLR 11.1 6.5 74% 75.87 0.0
08 02:15 S 7 16.09 Partly Cloudy SCT120 11.6 6.6 72% 75.87 0.0
08 01:55 S 11 16.09 Mostly Cloudy BKN120 12.1 6.6 69% 75.9 0.0
08 01:35 S 7 16.09 Fair CLR 11.3 7 75% 75.92 0.0
08 01:15 S 6 16.09 Fair CLR 10.5 7.4 81% 75.92 0.0
08 00:55 SW 6 16.09 Fair CLR 10.2 7.8 14.3 10.2 85% 75.97 0.0 0.03
08 00:35 Calm 16.09 Fair CLR 10.7 8 84% 75.97 0.0
08 00:15 S 6 16.09 Partly Cloudy SCT110 11 8.2 83% 75.97 0.0
07 23:55 Calm 16.09 Mostly Cloudy SCT085 BKN110 11.3 8.5 83% 75.97 0.0
07 23:35 S 7 16.09 Overcast SCT085 OVC120 11 8.4 84% 75.97 0.0
07 23:15 S 6 16.09 Mostly Cloudy BKN110 10.8 8.3 85% 75.97 0.0
07 22:55 S 9 16.09 Fair CLR 11 8.5 85% 75.97 0.0
07 22:35 S 9 16.09 Fair CLR 11.2 8.7 85% 75.95 0.0
07 22:15 S 7 16.09 Partly Cloudy SCT070 SCT085 11 10 94% 75.97 0.0
07 21:55 S 7 16.09 Mostly Cloudy SCT070 BKN085 11.1 10.5 96% 75.97 0.0 0.03
07 21:35 Calm 16.09 Fair CLR 11.3 10 92% 75.97 0.0
07 21:15 SE 9 16.09 Partly Cloudy SCT100 SCT120 12 10.2 89% 75.97 0.0
07 20:55 E 7 16.09 Light Rain SCT070 OVC095 12.5 10.5 88% 75.95 0.0 0.03
07 20:35 E 7 16.09 Rain SCT070 OVC095 13 9.9 82% 75.95 0.0 0.03
07 20:15 NW 7 16.09 Light Rain BKN070 OVC085 13 10 82% 75.97 0.0
07 19:55 SE 7 16.09 Overcast SCT070 OVC085 13.2 9.9 81% 75.92 0.0
07 19:35 SE 7 16.09 Overcast BKN070 OVC100 13.9 9 73% 75.92 0.0
07 19:15 SE 7 16.09 Partly Cloudy SCT070 SCT110 14.1 9.4 74% 75.92 0.0
07 18:55 S 9 16.09 Partly Cloudy SCT110 14.5 8.5 19.7 13.7 67% 75.92 0.0
07 18:35 Calm 16.09 Overcast SCT041 SCT065 OVC110 14.8 8.7 67% 75.92 0.0
07 18:15 Calm 16.09 Light Rain SCT032 BKN065 OVC110 14.1 8.1 67% 75.97 0.0
07 17:55 Calm 16.09 Light Rain SCT030 BKN043 OVC090 14 8.5 70% 75.97 0.0
07 17:35 N 9 11.27 Rain SCT050 BKN070 OVC090 14.9 7.7 62% 75.97 0.0
07 17:15 SE 6 16.09 Mostly Cloudy BKN090 16 6.4 53% 75.92 0.0
07 16:55 S 7 16.09 Fair CLR 16.7 6.7 52% 75.92 0.0
07 16:35 Calm 16.09 Partly Cloudy SCT055 SCT065 SCT110 16 7.1 56% 75.92 0.0
07 16:15 W 7 16.09 Light Rain SCT055 BKN070 OVC095 14.5 7.3 62% 75.97 0.0
07 15:55 N 9 16.09 Light Rain SCT060 OVC075 14.2 6.9 62% 76 0.0
07 15:35 N 22 G 39 16.09 Light Rain SCT050 OVC075 16.7 4.4 44% 75.97 0.0
07 15:15 W 15 16.09 Overcast BKN070 BKN090 OVC110 17.9 2.5 36% 75.95 0.0
07 14:55 W 19 G 31 16.09 Mostly Cloudy BKN090 BKN110 19.1 2.5 33% 75.95 0.0
07 14:35 SW 17 G 30 16.09 Mostly Cloudy SCT080 BKN090 BKN120 18.2 2.5 35% 75.97 0.0
07 14:15 SW 17 G 30 16.09 Partly Cloudy SCT070 SCT120 19.1 3.7 36% 75.97 0.0
07 13:55 W 19 G 26 16.09 Mostly Cloudy SCT070 BKN110 18.8 4 38% 75.97 0.0
07 13:35 SW 17 G 33 16.09 Partly Cloudy SCT070 SCT100 18.6 3.7 37% 76 0.0
07 13:15 W 17 G 30 16.09 Partly Cloudy SCT070 SCT085 18.1 3.5 38% 76.02 0.0
07 12:55 SW 15 G 26 16.09 Mostly Cloudy BKN070 BKN085 17.9 4 18.2 6 40% 76.05 0.0
07 12:35 W 15 G 28 16.09 Partly Cloudy SCT075 SCT095 17.7 3.5 39% 76.07 0.0
Date Time (cdt) Wind (kph) Vis. (km) Weather Sky Cond. Air Dwpt Max. Min. Relative Humidity Wind Chill (°C) Heat Index (°C) altimeter (cm) sea level (mb) 1 hr 3 hr 6 hr
6 hour
Temperature (ºC) Pressure Precipitation (cm)